Alexander, Iowa
Current Conditions -  °F | °C
As of 2:55 AM on Monday 24 Nov 2014 (Local Time) from KCAV Reporting Station
Overcast Overcast  
Wind Chill: 14°   Ceiling: 1200
Heat Index: 28°   Visibility: 10mi
Dew Point: 27°   Wind: 26mph
Humidity: 93%   Direction: 320°NW
Pressure: 29.37"   Gusts: 35mph
Location:  42.81°N, 93.48°W
Report Text: KCAV 240855Z AUTO 32023G30KT 10SM OVC012 M02/M03 A2937 RMK AO2
Loading
Personal Weather Stations






























Interactive Weather Map New forecast layout! Learn more

10-Day Weather Forecast

Advertisements
Track Severe Weather on mobile